createdAt,value
2023-09-23T00:02:48.213Z,99552.53
2023-09-23T00:05:37.819Z,99549.78
2023-09-23T00:08:25.663Z,99556.69
2023-09-23T00:11:14.812Z,99556.50
2023-09-23T00:14:02.776Z,99554.84
2023-09-23T00:16:50.701Z,99555.88
2023-09-23T00:19:41.598Z,99552.13
2023-09-23T00:22:29.616Z,99557.75
2023-09-23T00:25:19.787Z,99555.41
2023-09-23T00:28:12.002Z,99566.13
2023-09-23T00:31:11.468Z,99566.75
2023-09-23T00:34:00.187Z,99570.28
2023-09-23T00:36:48.095Z,99571.53
2023-09-23T00:39:42.920Z,99571.91
2023-09-23T00:42:31.110Z,99565.50
2023-09-23T00:45:23.518Z,99566.94
2023-09-23T00:48:12.306Z,99559.44
2023-09-23T00:51:01.237Z,99560.06
2023-09-23T00:53:49.925Z,99560.88
2023-09-23T00:56:38.157Z,99561.91
2023-09-23T00:59:25.973Z,99556.88
2023-09-23T01:02:15.544Z,99562.34
2023-09-23T01:05:03.924Z,99561.06
2023-09-23T01:07:52.624Z,99562.72
2023-09-23T01:10:40.763Z,99562.84
2023-09-23T01:13:31.302Z,99555.78
2023-09-23T01:16:20.396Z,99555.13
2023-09-23T01:19:10.989Z,99561.59
2023-09-23T01:21:58.922Z,99559.72
2023-09-23T01:24:48.014Z,99554.13
2023-09-23T01:27:36.276Z,99553.84
2023-09-23T01:30:25.411Z,99553.47
2023-09-23T01:33:14.023Z,99563.06
2023-09-23T01:36:04.407Z,99558.47
2023-09-23T01:38:52.189Z,99566.75
2023-09-23T01:41:42.010Z,99567.59
2023-09-23T01:44:29.889Z,99574.13
2023-09-23T01:47:23.036Z,99575.75
2023-09-23T01:50:11.945Z,99573.38
2023-09-23T01:53:01.850Z,99569.59
2023-09-23T01:55:49.635Z,99564.28
2023-09-23T01:58:38.770Z,99567.66
2023-09-23T02:01:27.574Z,99564.28
2023-09-23T02:04:16.213Z,99561.56
2023-09-23T02:07:04.098Z,99567.78
2023-09-23T02:09:51.958Z,99555.28
2023-09-23T02:12:39.771Z,99559.69
2023-09-23T02:15:28.918Z,99555.56
2023-09-23T02:18:16.899Z,99551.38
2023-09-23T02:21:05.072Z,99558.56
2023-09-23T02:23:52.961Z,99567.28
2023-09-23T02:26:40.677Z,99565.19
2023-09-23T02:29:28.675Z,99561.41
2023-09-23T02:32:17.854Z,99561.81
2023-09-23T02:35:07.536Z,99573.72
2023-09-23T02:37:55.919Z,99573.47
2023-09-23T02:40:44.950Z,99568.09
2023-09-23T02:43:33.020Z,99578.47
2023-09-23T02:46:20.870Z,99577.16
2023-09-23T02:49:10.866Z,99574.38
2023-09-23T02:51:58.615Z,99579.19
2023-09-23T02:54:46.304Z,99573.50
2023-09-23T02:57:36.489Z,99575.66
2023-09-23T03:00:25.728Z,99572.59
2023-09-23T03:03:20.394Z,99577.66
2023-09-23T03:06:12.009Z,99584.84
2023-09-23T03:09:00.956Z,99582.38
2023-09-23T03:11:54.605Z,99580.13
2023-09-23T03:14:44.201Z,99578.78
2023-09-23T03:17:33.514Z,99581.38
2023-09-23T03:20:24.132Z,99587.78
2023-09-23T03:23:13.417Z,99581.63
2023-09-23T03:26:01.818Z,99591.13
2023-09-23T03:28:50.937Z,99585.28
2023-09-23T03:31:38.721Z,99591.94
2023-09-23T03:34:27.520Z,99591.75
2023-09-23T03:37:16.368Z,99591.16
2023-09-23T03:40:09.227Z,99599.84
2023-09-23T03:42:56.947Z,99599.94
2023-09-23T03:45:44.835Z,99601.84
2023-09-23T03:48:32.662Z,99603.78
2023-09-23T03:51:20.269Z,99609.41
2023-09-23T03:54:08.758Z,99609.19
2023-09-23T03:56:58.254Z,99615.13
2023-09-23T03:59:46.036Z,99603.47
2023-09-23T04:02:34.449Z,99613.78
2023-09-23T04:05:25.005Z,99610.97
2023-09-23T04:08:13.949Z,99616.38
2023-09-23T04:11:04.296Z,99621.25
2023-09-23T04:13:53.540Z,99617.81
2023-09-23T04:16:41.353Z,99628.00
2023-09-23T04:19:29.427Z,99636.09
2023-09-23T04:22:19.407Z,99637.13
2023-09-23T04:25:08.043Z,99632.47
2023-09-23T04:27:57.029Z,99642.66
2023-09-23T04:30:46.147Z,99650.69
2023-09-23T04:33:33.932Z,99651.91
2023-09-23T04:36:22.519Z,99655.72
2023-09-23T04:39:10.332Z,99660.56
2023-09-23T04:41:58.149Z,99663.09
2023-09-23T04:44:46.099Z,99664.50
2023-09-23T04:47:36.357Z,99674.41
2023-09-23T04:50:26.215Z,99672.41
2023-09-23T04:53:14.084Z,99672.22
2023-09-23T04:56:01.943Z,99669.16
2023-09-23T04:58:49.973Z,99677.69
2023-09-23T05:01:38.025Z,99673.34
2023-09-23T05:04:27.291Z,99666.75
2023-09-23T05:07:15.650Z,99636.34
2023-09-23T05:10:03.368Z,99662.94
2023-09-23T05:12:55.291Z,99671.22
2023-09-23T05:15:44.721Z,99664.34
2023-09-23T05:18:32.645Z,99663.97
2023-09-23T05:21:21.992Z,99663.97
2023-09-23T05:24:11.458Z,99666.72
2023-09-23T05:27:01.187Z,99672.78
2023-09-23T05:29:52.032Z,99669.81
2023-09-23T05:32:40.127Z,99680.34
2023-09-23T05:35:29.173Z,99682.03
2023-09-23T05:38:18.322Z,99683.81
2023-09-23T05:41:06.476Z,99682.03
2023-09-23T05:43:54.624Z,99683.78
2023-09-23T05:46:43.562Z,99675.81
2023-09-23T05:49:32.814Z,99684.75
2023-09-23T05:52:20.503Z,99689.31
2023-09-23T05:55:10.437Z,99689.31
2023-09-23T05:57:58.189Z,99684.97
2023-09-23T06:00:47.273Z,99692.75
2023-09-23T06:03:35.169Z,99694.75
2023-09-23T06:06:23.257Z,99695.84
2023-09-23T06:09:11.061Z,99694.25
2023-09-23T06:12:00.048Z,99706.44
2023-09-23T06:14:48.122Z,99705.44
2023-09-23T06:17:38.443Z,99705.47
2023-09-23T06:20:26.785Z,99706.72
2023-09-23T06:23:14.430Z,99709.69
2023-09-23T06:26:04.011Z,99683.53
2023-09-23T06:28:53.261Z,99716.56
2023-09-23T06:31:41.176Z,99720.75
2023-09-23T06:34:29.180Z,99706.81
2023-09-23T06:37:17.119Z,99711.63
2023-09-23T06:40:06.547Z,99679.41
2023-09-23T06:42:54.318Z,99708.28
2023-09-23T06:45:43.512Z,99710.56
2023-09-23T06:48:31.433Z,99714.34
2023-09-23T06:51:19.109Z,99709.31
2023-09-23T06:54:08.265Z,99716.63
2023-09-23T06:56:56.164Z,99658.50
2023-09-23T06:59:44.276Z,99715.38
2023-09-23T07:02:33.439Z,99709.47
2023-09-23T07:05:21.363Z,99724.09
2023-09-23T07:08:09.169Z,99708.59
2023-09-23T07:10:57.339Z,99725.75
2023-09-23T07:13:46.116Z,99734.06
2023-09-23T07:16:34.777Z,99728.41
2023-09-23T07:19:24.271Z,99724.41
2023-09-23T07:22:12.072Z,99733.34
2023-09-23T07:24:59.978Z,99741.03
2023-09-23T07:27:48.122Z,99714.25
2023-09-23T07:30:36.907Z,99726.09
2023-09-23T07:33:24.938Z,99732.94
2023-09-23T07:36:14.730Z,99727.28
2023-09-23T07:39:03.291Z,99727.50
2023-09-23T07:41:51.288Z,99657.63
2023-09-23T07:44:38.996Z,99722.91
2023-09-23T07:47:27.872Z,99731.06
2023-09-23T07:50:15.760Z,99719.50
2023-09-23T07:53:05.233Z,99723.66
2023-09-23T07:55:53.008Z,99726.41
2023-09-23T07:58:41.057Z,99718.13
2023-09-23T08:01:28.807Z,99717.25
2023-09-23T08:04:16.641Z,99679.81
2023-09-23T08:07:04.534Z,99716.38
2023-09-23T08:09:53.810Z,99716.22
2023-09-23T08:12:41.794Z,99710.44
2023-09-23T08:15:29.473Z,99714.72
2023-09-23T08:18:17.550Z,99703.63
2023-09-23T08:21:07.309Z,99702.75
2023-09-23T08:23:55.233Z,99707.88
2023-09-23T08:26:44.349Z,99700.50
2023-09-23T08:29:32.792Z,99671.31
2023-09-23T08:32:20.858Z,99699.44
2023-09-23T08:35:09.493Z,99706.25
2023-09-23T08:37:57.481Z,99697.41
2023-09-23T08:40:46.583Z,99693.97
2023-09-23T08:43:38.908Z,99700.91
2023-09-23T08:46:28.202Z,99662.19
2023-09-23T08:49:16.203Z,99689.50
2023-09-23T08:52:05.455Z,99671.06
2023-09-23T08:54:53.164Z,99686.03
2023-09-23T08:57:41.931Z,99683.56
2023-09-23T09:00:32.020Z,99681.28
2023-09-23T09:03:19.875Z,99679.88
2023-09-23T09:06:17.837Z,99685.72
2023-09-23T09:09:05.743Z,99606.47
2023-09-23T09:11:56.077Z,99672.72
2023-09-23T09:14:43.748Z,99655.34
2023-09-23T09:17:35.497Z,99667.34
2023-09-23T09:20:23.686Z,99667.41
2023-09-23T09:23:16.197Z,99662.28
2023-09-23T09:26:04.014Z,99659.66
2023-09-23T09:28:51.813Z,99657.88
2023-09-23T09:31:39.930Z,99656.56
2023-09-23T09:34:33.841Z,99645.59
2023-09-23T09:37:25.214Z,99644.66
2023-09-23T09:40:18.250Z,99630.25
2023-09-23T09:43:06.861Z,99645.34
2023-09-23T09:45:56.636Z,99625.09
2023-09-23T09:48:48.172Z,99624.63
2023-09-23T09:51:38.304Z,99630.16
2023-09-23T09:54:27.701Z,99630.47
2023-09-23T09:57:16.035Z,99620.56
2023-09-23T10:00:09.909Z,99615.84
2023-09-23T10:03:07.251Z,99615.22
2023-09-23T10:06:01.433Z,99606.34
2023-09-23T10:08:52.917Z,99604.50
2023-09-23T10:11:40.869Z,99596.88
2023-09-23T10:14:28.909Z,99597.38
2023-09-23T10:17:16.761Z,99594.00
2023-09-23T10:20:12.093Z,99591.84
2023-09-23T10:23:00.979Z,99587.44
2023-09-23T10:25:53.685Z,99565.06
2023-09-23T10:28:42.106Z,99549.56
2023-09-23T10:31:31.306Z,99565.31
2023-09-23T10:34:19.131Z,99560.94
2023-09-23T10:37:06.912Z,99562.78
2023-09-23T10:39:54.731Z,99561.19
2023-09-23T10:42:44.310Z,99566.00
2023-09-23T10:45:32.861Z,99562.03
2023-09-23T10:48:20.790Z,99549.00
2023-09-23T10:51:10.177Z,99553.19
2023-09-23T10:53:58.598Z,99541.94
2023-09-23T10:56:46.477Z,99535.72
2023-09-23T10:59:35.905Z,99520.59
2023-09-23T11:02:26.269Z,99520.09
2023-09-23T11:05:16.356Z,99520.16
2023-09-23T11:08:04.530Z,99522.84
2023-09-23T11:10:52.258Z,99506.09
2023-09-23T11:13:39.940Z,99511.16
2023-09-23T11:16:29.272Z,99505.00
2023-09-23T11:19:18.623Z,99486.00
2023-09-23T11:22:06.524Z,99494.81
2023-09-23T11:24:55.358Z,99491.25
2023-09-23T11:27:48.954Z,99483.50
2023-09-23T11:30:37.016Z,99474.00
2023-09-23T11:33:27.163Z,99478.34
2023-09-23T11:36:15.170Z,99476.81
2023-09-23T11:39:03.430Z,99469.53
2023-09-23T11:41:58.598Z,99473.69
2023-09-23T11:44:46.543Z,99464.44
2023-09-23T11:47:34.421Z,99455.88
2023-09-23T11:50:24.060Z,99454.50
2023-09-23T11:53:12.258Z,99452.09
2023-09-23T11:56:00.119Z,99449.59
2023-09-23T11:59:05.737Z,99443.63
2023-09-23T12:01:55.434Z,99445.59
2023-09-23T12:04:43.186Z,99441.81
2023-09-23T12:07:34.073Z,99437.59
2023-09-23T12:10:21.956Z,99435.53
2023-09-23T12:13:09.654Z,99435.66
2023-09-23T12:15:57.451Z,99423.53
2023-09-23T12:18:46.043Z,99420.81
2023-09-23T12:21:34.061Z,99416.94
2023-09-23T12:24:23.135Z,99404.91
2023-09-23T12:27:11.121Z,99414.00
2023-09-23T12:29:59.615Z,99402.97
2023-09-23T12:32:47.796Z,99420.00
2023-09-23T12:35:35.708Z,99407.88
2023-09-23T12:38:23.604Z,99401.03
2023-09-23T12:41:12.981Z,99392.22
2023-09-23T12:44:00.984Z,99393.28
2023-09-23T12:46:49.245Z,99393.00
2023-09-23T12:49:38.061Z,99386.38
2023-09-23T12:52:25.925Z,99377.59
2023-09-23T12:55:13.697Z,99383.63
2023-09-23T12:58:02.920Z,99370.16
2023-09-23T13:00:50.718Z,99378.97
2023-09-23T13:03:38.764Z,99374.88
2023-09-23T13:06:26.878Z,99373.47
2023-09-23T13:09:14.513Z,99371.53
2023-09-23T13:12:02.806Z,99370.19
2023-09-23T13:14:53.433Z,99367.69
2023-09-23T13:17:41.286Z,99358.28
2023-09-23T13:20:29.194Z,99358.59
2023-09-23T13:23:16.999Z,99359.16
2023-09-23T13:26:04.931Z,99355.03
2023-09-23T13:28:52.644Z,99345.06
2023-09-23T13:31:41.846Z,99348.69
2023-09-23T13:34:29.616Z,99322.50
2023-09-23T13:37:17.433Z,99336.81
2023-09-23T13:40:05.983Z,99342.03
2023-09-23T13:42:54.061Z,99332.44
2023-09-23T13:45:42.069Z,99343.16
2023-09-23T13:48:31.337Z,99323.59
2023-09-23T13:51:19.362Z,99323.91
2023-09-23T13:54:07.381Z,99327.44
2023-09-23T13:56:55.405Z,99321.66
2023-09-23T13:59:43.146Z,99314.50
2023-09-23T14:02:31.421Z,99307.88
2023-09-23T14:05:20.662Z,99318.91
2023-09-23T14:08:09.813Z,99318.91
2023-09-23T14:10:57.852Z,99318.91
2023-09-23T14:13:46.542Z,99315.34
2023-09-23T14:16:34.867Z,99317.25
2023-09-23T14:19:22.932Z,99317.53
2023-09-23T14:22:12.107Z,99314.25
2023-09-23T14:24:59.808Z,99316.72
2023-09-23T14:27:47.553Z,99315.88
2023-09-23T14:30:35.347Z,99317.25
2023-09-23T14:33:23.073Z,99312.31
2023-09-23T14:36:10.997Z,99318.38
2023-09-23T14:39:04.579Z,99314.50
2023-09-23T14:41:54.321Z,99295.22
2023-09-23T14:44:42.031Z,99313.94
2023-09-23T14:47:29.920Z,99309.28
2023-09-23T14:50:17.934Z,99307.88
2023-09-23T14:53:05.995Z,99310.09
2023-09-23T14:55:55.556Z,99304.31
2023-09-23T14:58:43.336Z,99307.88
2023-09-23T15:01:31.260Z,99313.69
2023-09-23T15:04:19.313Z,99306.78
2023-09-23T15:07:07.232Z,99311.19
2023-09-23T15:09:55.350Z,99317.19
2023-09-23T15:12:45.273Z,99314.47
2023-09-23T15:15:33.246Z,99310.66
2023-09-23T15:18:21.026Z,99309.78
2023-09-23T15:21:09.214Z,99315.50
2023-09-23T15:23:56.930Z,99309.47
2023-09-23T15:26:45.273Z,99315.50
2023-09-23T15:29:34.492Z,99314.34
2023-09-23T15:32:22.379Z,99318.78
2023-09-23T15:35:10.964Z,99317.63
2023-09-23T15:37:58.781Z,99319.84
2023-09-23T15:40:46.771Z,99325.56
2023-09-23T15:43:34.882Z,99324.72
2023-09-23T15:46:23.996Z,99319.47
2023-09-23T15:49:12.912Z,99324.09
2023-09-23T15:52:00.925Z,99317.78
2023-09-23T15:54:49.171Z,99319.16
2023-09-23T15:57:37.597Z,99325.78
2023-09-23T16:00:25.791Z,99321.03
2023-09-23T16:03:15.407Z,99322.34
2023-09-23T16:06:03.726Z,99323.16
2023-09-23T16:08:51.758Z,99314.50
2023-09-23T16:11:39.532Z,99316.03
2023-09-23T16:14:27.384Z,99313.94
2023-09-23T16:17:16.493Z,99316.31
2023-09-23T16:20:07.280Z,99317.56
2023-09-23T16:22:54.965Z,99320.50
2023-09-23T16:25:42.702Z,99327.53
2023-09-23T16:28:30.537Z,99323.31
2023-09-23T16:31:18.334Z,99327.03
2023-09-23T16:34:06.729Z,99333.53
2023-09-23T16:36:56.270Z,99333.81
2023-09-23T16:39:45.033Z,99334.66
2023-09-23T16:42:32.763Z,99335.72
2023-09-23T16:45:20.872Z,99346.91
2023-09-23T16:48:09.212Z,99345.53
2023-09-23T16:50:57.086Z,99344.31
2023-09-23T16:53:47.225Z,99345.34
2023-09-23T16:56:35.147Z,99352.72
2023-09-23T16:59:23.295Z,99356.78
2023-09-23T17:02:11.264Z,99362.53
2023-09-23T17:05:00.228Z,99359.25
2023-09-23T17:07:48.140Z,99368.75
2023-09-23T17:10:37.398Z,99361.34
2023-09-23T17:13:25.190Z,99365.72
2023-09-23T17:16:12.911Z,99374.00
2023-09-23T17:19:01.129Z,99373.00
2023-09-23T17:21:49.681Z,99373.81
2023-09-23T17:24:37.642Z,99381.91
2023-09-23T17:27:27.328Z,99379.94
2023-09-23T17:30:16.208Z,99383.81
2023-09-23T17:33:05.573Z,99376.03
2023-09-23T17:35:58.046Z,99383.75
2023-09-23T17:38:46.482Z,99379.59
2023-09-23T17:41:34.951Z,99383.47
2023-09-23T17:44:24.268Z,99393.94
2023-09-23T17:47:12.610Z,99398.22
2023-09-23T17:50:00.519Z,99407.28
2023-09-23T17:52:48.751Z,99405.44
2023-09-23T17:55:36.579Z,99402.47
2023-09-23T17:58:24.723Z,99409.25
2023-09-23T18:01:13.963Z,99408.94
2023-09-23T18:04:01.958Z,99403.22
2023-09-23T18:06:50.980Z,99410.75
2023-09-23T18:09:39.940Z,99416.81
2023-09-23T18:12:28.112Z,99418.88
2023-09-23T18:15:16.638Z,99423.44
2023-09-23T18:18:06.332Z,99423.94
2023-09-23T18:20:54.399Z,99430.41
2023-09-23T18:23:45.239Z,99432.06
2023-09-23T18:26:34.533Z,99428.06
2023-09-23T18:29:23.094Z,99437.81
2023-09-23T18:32:15.827Z,99442.34
2023-09-23T18:35:06.017Z,99435.91
2023-09-23T18:37:54.019Z,99446.16
2023-09-23T18:40:43.472Z,99436.63
2023-09-23T18:43:31.503Z,99435.94
2023-09-23T18:46:20.777Z,99438.66
2023-09-23T18:49:08.742Z,99441.19
2023-09-23T18:52:00.289Z,99448.47
2023-09-23T18:54:48.429Z,99439.47
2023-09-23T18:57:36.253Z,99447.41
2023-09-23T19:00:24.776Z,99435.31
2023-09-23T19:03:12.733Z,99431.50
2023-09-23T19:06:01.113Z,99436.56
2023-09-23T19:08:51.528Z,99435.19
2023-09-23T19:11:39.667Z,99422.19
2023-09-23T19:14:27.891Z,99423.03
2023-09-23T19:17:16.174Z,99419.59
2023-09-23T19:20:06.835Z,99423.75
2023-09-23T19:22:54.803Z,99415.19
2023-09-23T19:25:44.042Z,99420.09
2023-09-23T19:28:31.911Z,99419.94
2023-09-23T19:31:20.328Z,99400.34
2023-09-23T19:34:08.688Z,99421.72
2023-09-23T19:36:57.574Z,99414.22
2023-09-23T19:39:45.563Z,99412.09
2023-09-23T19:42:35.732Z,99416.72
2023-09-23T19:45:23.741Z,99408.16
2023-09-23T19:48:11.759Z,99410.91
2023-09-23T19:51:00.710Z,99413.88
2023-09-23T19:53:49.034Z,99409.59
2023-09-23T19:56:37.145Z,99410.09
2023-09-23T19:59:27.760Z,99414.22
2023-09-23T20:02:16.046Z,99403.53
2023-09-23T20:05:03.725Z,99411.72
2023-09-23T20:07:51.707Z,99406.00
2023-09-23T20:10:40.031Z,99407.53
2023-09-23T20:13:28.200Z,99412.44
2023-09-23T20:16:17.364Z,99408.53
2023-09-23T20:19:05.287Z,99397.97
2023-09-23T20:21:52.956Z,99398.22
2023-09-23T20:24:40.726Z,99395.63
2023-09-23T20:27:28.473Z,99396.53
2023-09-23T20:30:16.627Z,99392.28
2023-09-23T20:33:06.724Z,99384.69
2023-09-23T20:35:54.692Z,99388.72
2023-09-23T20:38:42.780Z,99388.59
2023-09-23T20:41:30.822Z,99386.59
2023-09-23T20:44:18.561Z,99394.53
2023-09-23T20:47:06.473Z,99384.63
2023-09-23T20:49:55.550Z,99385.53
2023-09-23T20:52:43.429Z,99389.38
2023-09-23T20:55:31.775Z,99386.16
2023-09-23T20:58:20.573Z,99383.69
2023-09-23T21:01:08.271Z,99382.25
2023-09-23T21:03:56.334Z,99386.06
2023-09-23T21:06:45.724Z,99392.44
2023-09-23T21:09:33.478Z,99385.78
2023-09-23T21:12:21.842Z,99390.00
2023-09-23T21:15:15.751Z,99391.53
2023-09-23T21:18:03.554Z,99397.94
2023-09-23T21:20:51.431Z,99398.56
2023-09-23T21:23:40.684Z,99399.06
2023-09-23T21:26:28.663Z,99405.78
2023-09-23T21:29:16.493Z,99396.78
2023-09-23T21:32:04.696Z,99395.31
2023-09-23T21:34:52.613Z,99394.25
2023-09-23T21:37:40.460Z,99392.00
2023-09-23T21:40:29.669Z,99389.59
2023-09-23T21:43:17.847Z,99391.50
2023-09-23T21:46:07.883Z,99385.03
2023-09-23T21:48:55.672Z,99383.38
2023-09-23T21:51:43.630Z,99385.06
2023-09-23T21:54:31.323Z,99377.94
2023-09-23T21:57:20.630Z,99381.38
2023-09-23T22:00:26.780Z,99376.59
2023-09-23T22:03:14.837Z,99371.66
2023-09-23T22:06:03.588Z,99359.72
2023-09-23T22:08:51.852Z,99376.25
2023-09-23T22:11:39.998Z,99374.03
2023-09-23T22:14:29.327Z,99378.97
2023-09-23T22:17:17.072Z,99376.03
2023-09-23T22:20:05.442Z,99369.47
2023-09-23T22:22:53.181Z,99378.22
2023-09-23T22:25:41.549Z,99381.47
2023-09-23T22:28:29.535Z,99383.16
2023-09-23T22:31:19.339Z,99393.50
2023-09-23T22:34:07.616Z,99392.88
2023-09-23T22:36:55.404Z,99392.28
2023-09-23T22:39:52.792Z,99397.13
2023-09-23T22:42:49.032Z,99378.84
2023-09-23T22:45:39.810Z,99399.44
2023-09-23T22:48:30.227Z,99390.28
2023-09-23T22:51:20.892Z,99380.66
2023-09-23T22:54:10.740Z,99387.88
2023-09-23T22:56:58.495Z,99389.75
2023-09-23T22:59:46.406Z,99377.00
2023-09-23T23:02:34.148Z,99381.97
2023-09-23T23:05:26.369Z,99381.34
2023-09-23T23:08:14.482Z,99374.09
2023-09-23T23:11:02.328Z,99371.34
2023-09-23T23:13:50.624Z,99374.50
2023-09-23T23:16:38.964Z,99372.53
2023-09-23T23:19:28.003Z,99373.94
2023-09-23T23:22:17.312Z,99364.28
2023-09-23T23:25:06.095Z,99370.56
2023-09-23T23:27:53.939Z,99354.75
2023-09-23T23:30:43.929Z,99358.22
2023-09-23T23:33:32.049Z,99363.34
2023-09-23T23:36:19.827Z,99368.88
2023-09-23T23:39:10.169Z,99365.88
2023-09-23T23:42:00.127Z,99352.56
2023-09-23T23:44:53.177Z,99359.06
2023-09-23T23:47:41.775Z,99356.50
2023-09-23T23:50:31.462Z,99357.09
2023-09-23T23:53:19.394Z,99361.13
2023-09-23T23:56:10.482Z,99351.44
2023-09-23T23:58:58.367Z,99353.78
